Time;durP1;ratioP1;P1;durP2;ratioP2;P2;SDS_P1;SDS_P2;PMS_P1;PMS_P2;Temp;Humidity;BMP_temperature;BMP_pressure;BME280_temperature;BME280_humidity;BME280_pressure;Samples;Min_cycle;Max_cycle;Signal;HPM_P1;HPM_P2
2022/11/25 00:00:26;;;;;;;19.63;6.03;;;2.80;82.00;;;;;;5035170;28;20033;-68
2022/11/25 00:02:52;;;;;;;16.88;5.10;;;2.90;78.20;;;;;;5027963;28;20022;-69
2022/11/25 00:05:17;;;;;;;17.25;5.15;;;3.20;77.90;;;;;;5030893;28;20034;-68
2022/11/25 00:07:43;;;;;;;14.70;4.60;;;3.30;79.30;;;;;;5026328;28;20036;-68
2022/11/25 00:10:11;;;;;;;16.00;5.22;;;3.30;80.40;;;;;;5028596;28;20061;-69
2022/11/25 00:12:36;;;;;;;18.05;5.22;;;3.30;80.80;;;;;;5033069;28;20098;-69
2022/11/25 00:15:02;;;;;;;15.18;5.78;;;3.20;82.10;;;;;;5037276;28;20048;-69
2022/11/25 00:17:27;;;;;;;10.82;4.68;;;3.10;82.50;;;;;;5042850;28;20064;-69
2022/11/25 00:19:53;;;;;;;14.30;5.80;;;3.00;82.40;;;;;;5036823;28;20377;-69
2022/11/25 00:22:19;;;;;;;12.52;4.28;;;3.00;80.20;;;;;;5028400;28;20049;-68
2022/11/25 00:24:44;;;;;;;13.70;4.22;;;3.20;79.00;;;;;;5044777;28;20028;-69
2022/11/25 00:27:10;;;;;;;14.52;3.42;;;3.30;79.80;;;;;;5015628;28;20091;-70
2022/11/25 00:29:36;;;;;;;16.02;3.70;;;3.40;79.50;;;;;;5033232;28;20026;-68
2022/11/25 00:32:01;;;;;;;14.45;3.67;;;3.60;77.90;;;;;;5020665;28;20107;-69
2022/11/25 00:34:27;;;;;;;9.68;3.72;;;3.80;81.00;;;;;;5035063;28;20048;-68
2022/11/25 00:36:52;;;;;;;12.23;4.13;;;3.80;84.30;;;;;;5032905;28;20044;-68
2022/11/25 00:39:18;;;;;;;9.38;3.80;;;3.60;86.10;;;;;;5034856;28;20032;-70
2022/11/25 00:44:36;;;;;;;10.70;3.47;;;3.40;86.10;;;;;;5020381;28;20083;-69
2022/11/25 00:47:12;;;;;;;10.98;4.15;;;3.40;85.20;;;;;;5023112;28;20100;-69
2022/11/25 00:49:39;;;;;;;12.63;4.57;;;3.30;85.00;;;;;;5032062;28;20040;-69
2022/11/25 00:52:06;;;;;;;17.55;4.47;;;3.20;83.70;;;;;;5011955;28;20034;-69
2022/11/25 00:54:31;;;;;;;10.13;4.35;;;3.30;82.20;;;;;;5034459;28;20036;-69
2022/11/25 00:56:57;;;;;;;14.25;3.83;;;3.40;82.40;;;;;;5026899;28;20100;-69
2022/11/25 00:59:27;;;;;;;15.50;4.35;;;3.50;82.50;;;;;;5029410;28;20026;-69
2022/11/25 01:01:53;;;;;;;11.15;4.10;;;3.50;82.40;;;;;;5029527;28;20061;-68
2022/11/25 01:04:18;;;;;;;9.13;3.88;;;3.50;84.20;;;;;;5019126;28;20072;-68
2022/11/25 01:06:44;;;;;;;14.05;4.18;;;3.40;83.90;;;;;;5030199;28;20036;-68
2022/11/25 01:09:12;;;;;;;13.82;3.53;;;3.40;83.70;;;;;;5032266;28;20034;-68
2022/11/25 01:11:38;;;;;;;11.93;3.63;;;3.40;82.90;;;;;;5018259;28;20040;-69
2022/11/25 01:14:04;;;;;;;12.27;3.22;;;3.50;83.50;;;;;;5027050;28;20040;-69
2022/11/25 01:16:30;;;;;;;10.23;2.90;;;3.50;83.30;;;;;;5035493;28;20030;-68
2022/11/25 01:18:58;;;;;;;8.20;2.92;;;3.50;83.40;;;;;;5023495;28;20330;-68
2022/11/25 01:21:26;;;;;;;13.48;3.20;;;3.50;83.80;;;;;;5021805;28;20037;-68
2022/11/25 01:23:52;;;;;;;11.18;2.80;;;3.50;82.90;;;;;;5027546;28;20017;-68
2022/11/25 01:26:23;;;;;;;9.77;2.88;;;3.60;84.00;;;;;;5036031;28;20057;-68
2022/11/25 01:28:59;;;;;;;8.05;2.80;;;3.60;84.50;;;;;;5030233;28;20104;-68
2022/11/25 01:31:28;;;;;;;10.38;3.03;;;3.50;84.50;;;;;;5041919;28;20028;-69
2022/11/25 01:34:06;;;;;;;15.77;2.95;;;3.60;84.50;;;;;;5019241;28;20030;-70
2022/11/25 01:36:31;;;;;;;9.38;2.30;;;3.60;84.90;;;;;;5024727;28;20099;-69
2022/11/25 01:38:59;;;;;;;10.23;2.90;;;3.80;84.90;;;;;;5029647;28;20028;-69
2022/11/25 01:41:27;;;;;;;10.25;2.80;;;3.90;87.40;;;;;;5027419;28;20022;-68
2022/11/25 01:44:11;;;;;;;10.10;2.85;;;3.90;89.30;;;;;;5022981;28;20428;-69
2022/11/25 01:46:43;;;;;;;11.48;2.88;;;3.80;89.30;;;;;;5025783;28;20075;-69
2022/11/25 01:49:21;;;;;;;13.18;3.88;;;3.70;88.40;;;;;;5018032;28;20026;-69
2022/11/25 01:51:55;;;;;;;11.73;3.50;;;3.70;88.70;;;;;;5030660;28;20032;-69
2022/11/25 01:54:25;;;;;;;11.57;3.20;;;3.70;88.30;;;;;;5006547;28;20026;-69
2022/11/25 01:57:03;;;;;;;11.00;3.03;;;3.60;87.90;;;;;;5010666;28;20022;-68
2022/11/25 01:59:31;;;;;;;8.68;2.42;;;3.60;88.70;;;;;;4994149;28;20041;-69
2022/11/25 02:01:57;;;;;;;7.25;2.47;;;3.60;86.80;;;;;;5013017;28;20101;-67
2022/11/25 02:04:29;;;;;;;6.68;1.85;;;3.80;88.30;;;;;;5011666;28;20453;-69
2022/11/25 02:06:59;;;;;;;7.88;1.75;;;4.10;91.30;;;;;;5013436;28;20033;-68
2022/11/25 02:09:26;;;;;;;10.25;2.00;;;4.40;95.20;;;;;;4998233;28;20330;-68
2022/11/25 02:11:52;;;;;;;9.23;2.25;;;4.50;96.50;;;;;;5013970;28;20030;-68
2022/11/25 02:14:20;;;;;;;9.20;1.83;;;4.60;97.80;;;;;;5012997;28;20032;-68
2022/11/25 02:16:46;;;;;;;6.18;1.70;;;4.80;98.00;;;;;;5019329;28;20140;-68
2022/11/25 02:19:24;;;;;;;5.70;1.60;;;5.10;98.00;;;;;;5029256;28;20053;-70
2022/11/25 02:22:05;;;;;;;7.05;1.60;;;5.20;98.00;;;;;;5001140;28;20045;-68
2022/11/25 02:24:43;;;;;;;6.28;1.60;;;5.40;98.00;;;;;;4994284;28;20034;-69
2022/11/25 02:27:09;;;;;;;6.53;1.70;;;5.40;98.00;;;;;;5003898;28;20030;-69
2022/11/25 02:29:35;;;;;;;6.60;1.80;;;5.30;98.00;;;;;;5008059;28;20308;-69
2022/11/25 02:32:00;;;;;;;5.68;1.85;;;5.10;98.00;;;;;;5004585;28;20030;-68
2022/11/25 02:34:26;;;;;;;9.00;2.45;;;5.10;98.00;;;;;;4998643;28;20097;-69
2022/11/25 02:36:52;;;;;;;5.78;1.60;;;5.20;98.00;;;;;;5003264;28;20030;-68
2022/11/25 02:39:18;;;;;;;10.25;1.60;;;5.20;98.00;;;;;;5003154;28;20072;-68
2022/11/25 02:41:55;;;;;;;5.60;1.50;;;5.20;98.00;;;;;;5011994;28;20029;-69
2022/11/25 02:44:21;;;;;;;6.25;1.80;;;5.10;98.00;;;;;;5003384;28;20033;-69
2022/11/25 02:46:47;;;;;;;4.57;1.48;;;4.90;98.00;;;;;;5010255;28;20323;-69
2022/11/25 02:49:12;;;;;;;8.82;1.85;;;5.00;98.00;;;;;;5010086;28;20030;-69
2022/11/25 02:51:40;;;;;;;4.47;1.50;;;4.90;98.00;;;;;;5009840;28;20113;-69
2022/11/25 02:54:06;;;;;;;6.80;2.03;;;4.80;98.00;;;;;;5003185;28;20031;-68
2022/11/25 02:56:34;;;;;;;5.68;1.80;;;4.70;98.00;;;;;;5006501;28;20033;-68
2022/11/25 02:59:00;;;;;;;5.80;1.98;;;4.50;98.00;;;;;;5009247;28;20069;-69
2022/11/25 03:01:27;;;;;;;4.88;1.70;;;4.60;98.00;;;;;;5006512;28;20073;-69
2022/11/25 03:03:52;;;;;;;9.02;2.47;;;4.60;98.00;;;;;;4995446;28;20127;-69
2022/11/25 03:06:18;;;;;;;7.35;2.42;;;4.80;98.00;;;;;;5011643;28;20101;-69
2022/11/25 03:08:43;;;;;;;8.98;2.00;;;4.70;98.00;;;;;;5010403;28;20057;-68
2022/11/25 03:11:09;;;;;;;7.63;2.40;;;4.50;98.00;;;;;;5012838;28;20091;-69
2022/11/25 03:13:34;;;;;;;6.60;2.40;;;4.30;98.00;;;;;;5008711;28;20037;-68
2022/11/25 03:16:00;;;;;;;10.80;2.95;;;4.20;98.00;;;;;;5005460;28;20034;-69
2022/11/25 03:18:26;;;;;;;9.90;3.30;;;4.00;98.00;;;;;;5012988;28;21194;-69
2022/11/25 03:20:55;;;;;;;7.75;3.17;;;3.80;98.00;;;;;;5018503;28;20054;-68
2022/11/25 03:23:21;;;;;;;8.05;2.92;;;3.60;97.60;;;;;;5033659;28;20069;-68
2022/11/25 03:25:47;;;;;;;7.15;2.80;;;3.40;96.60;;;;;;5014690;28;20025;-68
2022/11/25 03:28:12;;;;;;;7.95;3.83;;;3.20;96.20;;;;;;5023029;28;20045;-68
2022/11/25 03:30:38;;;;;;;11.68;4.25;;;3.10;94.10;;;;;;5022066;28;20027;-69
2022/11/25 03:33:04;;;;;;;10.10;3.72;;;3.10;94.50;;;;;;5017453;28;20053;-69
2022/11/25 03:35:30;;;;;;;10.88;3.60;;;2.90;93.40;;;;;;5038413;28;20152;-69
2022/11/25 03:37:55;;;;;;;8.88;3.83;;;2.90;92.10;;;;;;5027388;28;20111;-69
2022/11/25 03:40:21;;;;;;;8.43;3.38;;;2.80;92.10;;;;;;5037248;28;20021;-69
2022/11/25 03:42:46;;;;;;;11.25;4.00;;;2.70;90.90;;;;;;5039778;28;20050;-68
2022/11/25 03:45:13;;;;;;;11.63;4.75;;;2.60;90.00;;;;;;5032316;28;20025;-68
2022/11/25 03:47:41;;;;;;;11.45;4.72;;;2.70;88.30;;;;;;5020025;28;20030;-69
2022/11/25 03:50:07;;;;;;;13.70;6.28;;;2.70;88.60;;;;;;5035987;28;20057;-69
2022/11/25 03:52:33;;;;;;;12.73;5.60;;;2.60;88.30;;;;;;5030149;28;20034;-69
2022/11/25 03:54:58;;;;;;;18.65;8.07;;;2.50;87.90;;;;;;5026743;28;20442;-68
2022/11/25 03:57:24;;;;;;;19.73;8.98;;;2.40;87.40;;;;;;5020598;28;20034;-68
2022/11/25 03:59:52;;;;;;;17.15;8.23;;;2.40;86.80;;;;;;5027568;28;20379;-69
2022/11/25 04:02:18;;;;;;;13.60;6.75;;;2.30;86.10;;;;;;5033711;28;20036;-69
2022/11/25 04:04:43;;;;;;;13.57;7.72;;;2.30;84.40;;;;;;5028096;28;20029;-68
2022/11/25 04:07:09;;;;;;;16.05;7.07;;;2.40;84.30;;;;;;5040622;28;20063;-68
2022/11/25 04:09:35;;;;;;;13.30;5.85;;;2.40;84.00;;;;;;5026920;28;20076;-68
2022/11/25 04:14:44;;;;;;;;;;;2.30;82.00;;;;;;5026215;28;20429;-68
2022/11/25 04:17:13;;;;;;;7.53;3.78;;;2.40;83.70;;;;;;5028504;28;19999;-68
2022/11/25 04:19:38;;;;;;;11.45;5.50;;;2.40;83.20;;;;;;5031724;28;20029;-68
2022/11/25 04:22:04;;;;;;;7.70;4.00;;;2.40;84.40;;;;;;5033817;28;20104;-67
2022/11/25 04:24:30;;;;;;;9.32;3.95;;;2.30;84.30;;;;;;5034250;28;20100;-68
2022/11/25 04:26:55;;;;;;;11.02;3.65;;;2.30;84.50;;;;;;5031791;28;20365;-69
2022/11/25 04:29:21;;;;;;;9.27;2.72;;;2.40;81.40;;;;;;5032665;28;20084;-69
2022/11/25 04:31:46;;;;;;;6.53;2.35;;;2.80;81.30;;;;;;5033019;28;20041;-69
2022/11/25 04:34:12;;;;;;;7.95;2.20;;;3.10;86.10;;;;;;5030601;28;20041;-69
2022/11/25 04:36:37;;;;;;;5.68;1.90;;;3.30;90.20;;;;;;5017933;28;20026;-69
2022/11/25 04:39:03;;;;;;;5.47;1.83;;;3.40;92.70;;;;;;5011973;28;20119;-69
2022/11/25 04:41:29;;;;;;;7.28;1.85;;;3.70;95.90;;;;;;5027914;28;20036;-69
2022/11/25 04:43:55;;;;;;;6.05;1.90;;;3.90;98.00;;;;;;5025305;28;20423;-69
2022/11/25 04:46:27;;;;;;;8.38;2.10;;;4.00;98.00;;;;;;5028734;28;20053;-68
2022/11/25 04:48:53;;;;;;;4.85;1.70;;;4.00;98.00;;;;;;5035656;28;20093;-69
2022/11/25 04:51:18;;;;;;;7.82;1.75;;;4.10;98.00;;;;;;5034826;28;20156;-69
2022/11/25 04:53:44;;;;;;;9.88;1.83;;;4.10;98.00;;;;;;5030187;28;20033;-69
2022/11/25 04:56:16;;;;;;;6.93;1.88;;;4.00;98.00;;;;;;5032276;28;20040;-69
2022/11/25 05:01:26;;;;;;;6.45;1.73;;;4.00;98.00;;;;;;5032040;28;20040;-68
2022/11/25 05:03:51;;;;;;;5.75;1.70;;;4.00;98.00;;;;;;5022749;28;20029;-68
2022/11/25 05:06:18;;;;;;;6.53;2.05;;;4.10;98.00;;;;;;5034262;28;20044;-71
2022/11/25 05:08:46;;;;;;;6.32;1.52;;;4.10;98.00;;;;;;5030474;28;20029;-68
2022/11/25 05:11:12;;;;;;;7.82;1.40;;;4.10;98.00;;;;;;5030453;28;20313;-69
2022/11/25 05:13:37;;;;;;;4.22;1.70;;;4.10;98.00;;;;;;5030451;28;20029;-69
2022/11/25 05:16:03;;;;;;;4.00;1.50;;;4.00;98.00;;;;;;5041756;28;20048;-69
2022/11/25 05:18:29;;;;;;;6.20;1.80;;;3.90;98.00;;;;;;5018038;28;20040;-69
2022/11/25 05:20:59;;;;;;;6.38;1.90;;;4.00;98.00;;;;;;5035182;28;20105;-69
2022/11/25 05:23:24;;;;;;;4.25;1.30;;;4.10;98.00;;;;;;5031824;28;20137;-69
2022/11/25 05:25:50;;;;;;;6.68;1.85;;;4.10;98.00;;;;;;5034569;28;20108;-68
2022/11/25 05:28:15;;;;;;;5.15;1.88;;;4.10;98.00;;;;;;5028063;28;20438;-68
2022/11/25 05:30:41;;;;;;;3.72;1.50;;;4.10;98.00;;;;;;5032440;28;20017;-68
2022/11/25 05:33:07;;;;;;;6.07;1.75;;;4.10;98.00;;;;;;5025978;28;20036;-69
2022/11/25 05:35:32;;;;;;;5.10;1.90;;;4.30;98.00;;;;;;5021248;28;20030;-69
2022/11/25 05:37:59;;;;;;;4.45;1.50;;;4.30;98.00;;;;;;5023144;28;20025;-68
2022/11/25 05:40:25;;;;;;;6.63;1.85;;;4.40;98.00;;;;;;5032138;28;20029;-68
2022/11/25 05:42:52;;;;;;;6.05;1.80;;;4.50;98.00;;;;;;5024348;28;20136;-69
2022/11/25 05:45:17;;;;;;;4.30;2.17;;;4.40;98.00;;;;;;5029489;28;20151;-68
2022/11/25 05:47:43;;;;;;;6.68;1.90;;;4.30;98.00;;;;;;5038621;28;20060;-69
2022/11/25 05:50:09;;;;;;;7.53;2.20;;;4.10;98.00;;;;;;5041212;28;20110;-69
2022/11/25 05:52:34;;;;;;;4.20;1.52;;;4.10;98.00;;;;;;5031694;28;20076;-68
2022/11/25 05:55:00;;;;;;;7.35;2.60;;;4.00;98.00;;;;;;5017783;28;20092;-68
2022/11/25 05:57:27;;;;;;;5.50;2.17;;;3.90;98.00;;;;;;5025253;28;20022;-69
2022/11/25 05:59:53;;;;;;;5.10;2.30;;;3.80;98.00;;;;;;5022971;28;20033;-68
2022/11/25 06:02:18;;;;;;;4.78;2.13;;;3.60;98.00;;;;;;5014236;28;20233;-69
2022/11/25 06:04:44;;;;;;;7.55;2.97;;;3.50;98.00;;;;;;5035173;28;20032;-69
2022/11/25 06:07:09;;;;;;;7.10;2.80;;;3.40;98.00;;;;;;5034065;28;20037;-69
2022/11/25 06:09:35;;;;;;;5.75;2.20;;;3.40;98.00;;;;;;5024785;28;20105;-69
2022/11/25 06:12:00;;;;;;;6.38;2.30;;;3.40;98.00;;;;;;5015994;28;20477;-69
2022/11/25 06:14:26;;;;;;;6.47;1.80;;;3.40;98.00;;;;;;5014771;28;20030;-69
2022/11/25 06:16:52;;;;;;;5.63;1.73;;;3.40;98.00;;;;;;5016005;28;20326;-68
2022/11/25 06:19:17;;;;;;;7.32;1.98;;;3.60;98.00;;;;;;5033015;28;20451;-69
2022/11/25 06:21:45;;;;;;;5.43;1.67;;;3.90;98.00;;;;;;5035582;28;20120;-69
2022/11/25 06:24:11;;;;;;;6.25;1.65;;;4.10;98.00;;;;;;5018420;28;20041;-69
2022/11/25 06:26:36;;;;;;;4.28;1.60;;;4.30;98.00;;;;;;5016549;28;20038;-69
2022/11/25 06:29:02;;;;;;;6.40;1.75;;;4.30;98.00;;;;;;5015209;28;20030;-69
2022/11/25 06:31:28;;;;;;;5.10;1.95;;;4.40;98.00;;;;;;4998490;28;20052;-69
2022/11/25 06:33:53;;;;;;;6.68;1.60;;;4.50;98.00;;;;;;5024738;28;20323;-69
2022/11/25 06:36:20;;;;;;;8.15;2.80;;;4.50;98.00;;;;;;5033560;28;20021;-69
2022/11/25 06:38:49;;;;;;;10.15;3.72;;;4.50;98.00;;;;;;5033622;28;20060;-69
2022/11/25 06:41:16;;;;;;;8.82;3.35;;;4.20;98.00;;;;;;5022586;28;20083;-69
2022/11/25 06:43:41;;;;;;;6.57;2.83;;;4.10;98.00;;;;;;5033215;28;20030;-69
2022/11/25 06:46:13;;;;;;;7.57;2.97;;;3.90;98.00;;;;;;5028350;28;20441;-69
2022/11/25 06:48:39;;;;;;;9.95;5.05;;;3.90;98.00;;;;;;5058525;28;20108;-69
2022/11/25 06:51:09;;;;;;;10.80;5.35;;;3.80;98.00;;;;;;5024154;28;20318;-69
2022/11/25 06:53:35;;;;;;;11.00;4.50;;;3.70;98.00;;;;;;5030513;28;20026;-69
2022/11/25 06:56:21;;;;;;;6.72;3.33;;;3.70;98.00;;;;;;5038753;28;20029;-69
2022/11/25 06:58:51;;;;;;;10.25;3.90;;;3.80;98.00;;;;;;5036462;28;20033;-69
2022/11/25 07:01:26;;;;;;;7.78;2.60;;;4.00;98.00;;;;;;5019291;28;20030;-69
2022/11/25 07:03:54;;;;;;;7.97;2.00;;;4.30;98.00;;;;;;5038306;28;20034;-69
2022/11/25 07:06:22;;;;;;;5.88;2.10;;;4.60;98.00;;;;;;5019144;28;20033;-69
2022/11/25 07:08:48;;;;;;;7.93;2.60;;;4.90;98.00;;;;;;5001317;28;20026;-69
2022/11/25 07:11:20;;;;;;;7.95;2.35;;;5.10;98.00;;;;;;5019514;28;20026;-68
2022/11/25 07:13:47;;;;;;;6.85;2.35;;;5.10;98.00;;;;;;5000390;28;20128;-69
2022/11/25 07:16:14;;;;;;;8.25;2.28;;;5.10;98.00;;;;;;5034647;28;20937;-68
2022/11/25 07:18:40;;;;;;;6.60;1.67;;;5.30;98.00;;;;;;5018930;28;20040;-68
2022/11/25 07:21:10;;;;;;;4.88;1.55;;;5.50;98.00;;;;;;5036112;28;20483;-70
2022/11/25 07:23:40;;;;;;;5.55;2.20;;;5.70;98.00;;;;;;5033364;28;20071;-70
2022/11/25 07:26:11;;;;;;;6.10;1.70;;;5.90;98.00;;;;;;5035767;28;20350;-70
2022/11/25 07:28:38;;;;;;;5.80;2.20;;;5.90;98.00;;;;;;5021767;28;20419;-70
2022/11/25 07:31:14;;;;;;;5.63;2.60;;;5.80;98.00;;;;;;5033918;28;20025;-70
2022/11/25 07:33:40;;;;;;;4.22;2.00;;;5.80;98.00;;;;;;5038518;28;20029;-69
2022/11/25 07:36:11;;;;;;;7.20;3.00;;;5.80;98.00;;;;;;5036773;28;20036;-69
2022/11/25 07:38:38;;;;;;;6.50;2.60;;;5.80;98.00;;;;;;5038268;28;20021;-70
2022/11/25 07:41:15;;;;;;;24.17;11.85;;;5.90;98.00;;;;;;5021183;28;20145;-69
2022/11/25 07:43:44;;;;;;;20.50;11.80;;;6.00;98.00;;;;;;5018140;28;20056;-69
2022/11/25 07:46:15;;;;;;;26.20;12.45;;;6.00;98.00;;;;;;5017911;28;20434;-69
2022/11/25 07:48:41;;;;;;;15.07;6.70;;;6.20;97.60;;;;;;5018965;28;20030;-69
2022/11/25 07:51:23;;;;;;;7.53;2.60;;;6.20;98.00;;;;;;5038251;28;20029;-69
2022/11/25 07:53:50;;;;;;;7.25;3.22;;;6.20;98.00;;;;;;5037915;28;20028;-69
2022/11/25 07:56:16;;;;;;;6.97;2.80;;;6.20;98.00;;;;;;5036264;28;20322;-69
2022/11/25 07:58:43;;;;;;;9.18;2.80;;;6.20;98.00;;;;;;5019857;28;20025;-69
2022/11/25 08:01:10;;;;;;;7.82;2.60;;;6.40;98.00;;;;;;5021442;28;20030;-69
2022/11/25 08:03:37;;;;;;;6.95;2.10;;;6.40;98.00;;;;;;5020043;28;20021;-69
2022/11/25 08:06:05;;;;;;;7.50;2.65;;;6.50;98.00;;;;;;5032536;28;20030;-69
2022/11/25 08:08:32;;;;;;;7.13;3.45;;;6.40;98.00;;;;;;5018116;28;20036;-69
2022/11/25 08:10:57;;;;;;;47.30;25.95;;;6.40;98.00;;;;;;5017841;28;20026;-69
2022/11/25 08:13:23;;;;;;;68.43;38.25;;;6.50;98.00;;;;;;5018019;28;20328;-69
2022/11/25 08:15:49;;;;;;;52.83;29.75;;;6.50;98.00;;;;;;5026757;28;20383;-69
2022/11/25 08:18:15;;;;;;;38.25;21.55;;;6.60;98.00;;;;;;5032697;28;20026;-69
2022/11/25 08:20:41;;;;;;;55.63;34.30;;;6.60;98.00;;;;;;5054428;28;20426;-67
2022/11/25 08:23:06;;;;;;;18.25;10.43;;;6.70;98.00;;;;;;5057432;28;20053;-68
2022/11/25 08:25:32;;;;;;;13.18;6.78;;;6.80;98.00;;;;;;5043350;28;20025;-69
2022/11/25 08:28:00;;;;;;;16.52;8.13;;;6.80;98.00;;;;;;5035482;28;20029;-69
2022/11/25 08:30:26;;;;;;;15.77;8.13;;;6.90;98.00;;;;;;5026396;28;20026;-69
2022/11/25 08:32:52;;;;;;;10.70;5.30;;;6.80;98.00;;;;;;5037625;28;20033;-68
2022/11/25 08:35:19;;;;;;;10.20;6.03;;;7.00;98.00;;;;;;5035506;28;20029;-69
2022/11/25 08:37:45;;;;;;;9.85;5.45;;;7.10;98.00;;;;;;5049668;28;20018;-69
2022/11/25 08:40:11;;;;;;;10.77;5.05;;;7.20;98.00;;;;;;5040440;28;20040;-69
2022/11/25 08:42:37;;;;;;;8.13;4.03;;;7.40;98.00;;;;;;5053167;28;20314;-69
2022/11/25 08:45:04;;;;;;;10.30;4.55;;;7.70;97.50;;;;;;5049788;28;20033;-69
2022/11/25 08:47:30;;;;;;;13.98;7.20;;;8.00;96.30;;;;;;5036441;28;20314;-69
2022/11/25 08:49:56;;;;;;;10.98;5.50;;;8.20;95.70;;;;;;5036949;28;20033;-69
2022/11/25 08:52:22;;;;;;;9.55;5.15;;;8.40;95.50;;;;;;5035053;28;20131;-69
2022/11/25 08:54:48;;;;;;;8.38;3.17;;;8.60;95.40;;;;;;5036759;28;20041;-69
2022/11/25 08:57:14;;;;;;;6.88;3.15;;;8.80;93.90;;;;;;5036012;28;20017;-69
2022/11/25 08:59:40;;;;;;;10.43;4.13;;;9.00;91.30;;;;;;5034726;28;20067;-69
2022/11/25 09:02:08;;;;;;;7.95;3.72;;;9.00;91.50;;;;;;5033440;28;20030;-69
2022/11/25 09:04:36;;;;;;;7.80;2.80;;;9.10;91.10;;;;;;5023961;28;20425;-69
2022/11/25 09:07:04;;;;;;;7.65;3.35;;;9.20;90.00;;;;;;5036292;28;20029;-69
2022/11/25 09:09:29;;;;;;;8.68;2.92;;;9.40;90.80;;;;;;5030919;28;20032;-69
2022/11/25 09:11:55;;;;;;;10.02;2.67;;;9.60;89.70;;;;;;5026775;28;20101;-69
2022/11/25 09:14:21;;;;;;;10.95;3.40;;;9.80;89.60;;;;;;5023697;28;20030;-69
2022/11/25 09:16:46;;;;;;;10.10;3.05;;;9.90;88.70;;;;;;5034605;28;20025;-69
2022/11/25 09:19:12;;;;;;;8.15;3.58;;;9.90;88.60;;;;;;5036564;28;20113;-69
2022/11/25 09:21:37;;;;;;;8.90;3.30;;;10.00;88.00;;;;;;5034461;28;20045;-69
2022/11/25 09:24:03;;;;;;;8.85;3.25;;;9.90;88.20;;;;;;5032092;28;20488;-69
2022/11/25 09:26:31;;;;;;;9.23;3.88;;;10.00;87.40;;;;;;5027281;28;20096;-69
2022/11/25 09:28:57;;;;;;;11.32;3.55;;;10.10;87.90;;;;;;5021241;28;20025;-69
2022/11/25 09:31:23;;;;;;;11.00;3.53;;;10.20;86.80;;;;;;5014140;28;20040;-69
2022/11/25 09:33:49;;;;;;;9.43;4.18;;;10.40;86.90;;;;;;5007359;28;20499;-70
2022/11/25 09:36:16;;;;;;;6.88;2.80;;;10.60;87.00;;;;;;5006075;28;20087;-70
2022/11/25 09:38:45;;;;;;;10.68;6.43;;;11.20;85.10;;;;;;5016972;28;20108;-70
2022/11/25 09:48:02;;;;;;;5.45;1.90;;;12.00;81.90;;;;;;5017522;28;20071;-71
2022/11/25 09:51:00;;;;;;;10.35;3.00;;;12.00;83.10;;;;;;4999562;28;20124;-69
2022/11/25 09:53:46;;;;;;;11.05;3.22;;;12.20;82.30;;;;;;5017740;28;20052;-69
2022/11/25 09:56:26;;;;;;;8.05;2.20;;;12.00;82.80;;;;;;5012391;28;20039;-69
2022/11/25 09:59:04;;;;;;;6.25;2.30;;;11.70;83.10;;;;;;5018289;28;20918;-69
2022/11/25 10:01:30;;;;;;;9.02;3.47;;;11.80;83.00;;;;;;5019431;28;20029;-69
2022/11/25 10:04:03;;;;;;;12.40;2.95;;;11.90;83.00;;;;;;5027174;28;20047;-69
2022/11/25 10:06:42;;;;;;;10.48;3.80;;;11.80;84.00;;;;;;5030786;28;20322;-69
2022/11/25 10:09:13;;;;;;;10.90;4.10;;;11.80;84.00;;;;;;5035185;28;20017;-69
2022/11/25 10:11:52;;;;;;;10.63;4.05;;;11.80;84.90;;;;;;5023087;28;20060;-69
2022/11/25 10:14:43;;;;;;;11.68;4.72;;;11.80;85.30;;;;;;5021977;28;20148;-69
2022/11/25 10:17:08;;;;;;;13.43;5.55;;;11.80;85.00;;;;;;5030170;28;20106;-70
2022/11/25 10:19:37;;;;;;;10.27;3.10;;;11.90;84.90;;;;;;5034434;28;20026;-70
2022/11/25 10:22:19;;;;;;;11.60;4.28;;;12.00;84.20;;;;;;5035419;28;20331;-70
2022/11/25 10:24:47;;;;;;;12.10;3.67;;;11.80;86.00;;;;;;5041635;28;20029;-70
2022/11/25 10:27:37;;;;;;;8.05;2.72;;;12.10;86.30;;;;;;5036315;28;20039;-69
2022/11/25 10:30:24;;;;;;;10.48;2.78;;;12.50;85.40;;;;;;5032716;28;20029;-70
2022/11/25 10:33:19;;;;;;;9.07;2.85;;;13.00;83.30;;;;;;5020258;28;20030;-69
2022/11/25 10:35:51;;;;;;;10.13;3.88;;;13.00;83.50;;;;;;5026527;28;20037;-70
2022/11/25 10:38:30;;;;;;;7.97;2.55;;;12.40;84.30;;;;;;5041188;28;20029;-69
2022/11/25 10:40:57;;;;;;;11.82;4.63;;;11.70;86.20;;;;;;5052615;28;20021;-70
2022/11/25 10:43:22;;;;;;;12.10;5.00;;;11.10;88.30;;;;;;5027576;28;20029;-70
2022/11/25 10:45:58;;;;;;;14.18;6.15;;;10.80;89.70;;;;;;5018512;28;20415;-69
2022/11/25 10:48:42;;;;;;;8.55;2.63;;;10.50;90.30;;;;;;5019637;28;20022;-69
2022/11/25 10:51:38;;;;;;;12.25;3.60;;;10.30;91.30;;;;;;5019702;28;20026;-70
2022/11/25 10:54:14;;;;;;;10.88;3.40;;;10.30;92.20;;;;;;5009105;28;20426;-69
2022/11/25 10:57:03;;;;;;;12.45;4.30;;;10.20;92.50;;;;;;5019752;28;20441;-69
2022/11/25 10:59:34;;;;;;;11.40;3.88;;;10.10;92.80;;;;;;5000788;28;20033;-69
2022/11/25 11:02:24;;;;;;;18.20;10.20;;;10.00;93.70;;;;;;5019424;28;20343;-69
2022/11/25 11:05:16;;;;;;;14.63;7.80;;;9.80;93.80;;;;;;5019303;28;20029;-69
2022/11/25 11:07:44;;;;;;;13.15;5.63;;;9.70;94.50;;;;;;5018407;28;20045;-69
2022/11/25 11:10:24;;;;;;;16.98;8.55;;;9.70;95.00;;;;;;5038870;28;20037;-69
2022/11/25 11:13:05;;;;;;;31.60;20.70;;;9.60;95.20;;;;;;5038945;28;20033;-69
2022/11/25 11:15:39;;;;;;;9.57;3.67;;;9.40;95.70;;;;;;5029089;28;20022;-69
2022/11/25 11:18:27;;;;;;;9.18;2.92;;;9.40;95.60;;;;;;5033085;28;20112;-69
2022/11/25 11:20:56;;;;;;;5.63;2.28;;;9.30;95.90;;;;;;5038814;28;20014;-69
2022/11/25 11:23:23;;;;;;;6.25;1.95;;;9.20;95.90;;;;;;5038555;28;20100;-69
2022/11/25 11:26:01;;;;;;;8.27;2.58;;;9.10;96.30;;;;;;5038655;28;20026;-69
2022/11/25 11:28:32;;;;;;;5.55;2.08;;;9.10;96.80;;;;;;5038724;28;20100;-69
2022/11/25 11:31:08;;;;;;;7.10;2.95;;;9.00;96.70;;;;;;5037729;28;20026;-69
2022/11/25 11:33:51;;;;;;;7.72;3.10;;;9.00;96.80;;;;;;5019247;28;20105;-69
2022/11/25 11:36:36;;;;;;;12.03;6.57;;;9.00;97.20;;;;;;5018222;28;20505;-69
2022/11/25 11:39:07;;;;;;;11.57;7.40;;;9.00;97.30;;;;;;5038335;28;20057;-69
2022/11/25 11:41:40;;;;;;;9.30;4.20;;;9.10;97.40;;;;;;5037720;28;20033;-69
2022/11/25 11:44:24;;;;;;;12.07;4.70;;;9.00;97.60;;;;;;5037335;28;20021;-69
2022/11/25 11:47:06;;;;;;;19.15;9.20;;;9.10;97.60;;;;;;5053982;28;20033;-69
2022/11/25 11:50:02;;;;;;;11.50;4.85;;;9.10;97.80;;;;;;5020692;28;20079;-69
2022/11/25 11:52:48;;;;;;;11.13;4.15;;;9.20;97.70;;;;;;5038209;28;20419;-69
2022/11/25 11:55:36;;;;;;;13.57;4.40;;;9.20;97.80;;;;;;5009134;28;20103;-69
2022/11/25 11:58:16;;;;;;;34.38;17.70;;;9.10;98.00;;;;;;5038147;28;20030;-69
2022/11/25 12:00:59;;;;;;;10.55;4.65;;;9.10;98.00;;;;;;5036598;28;20025;-69
2022/11/25 12:03:28;;;;;;;8.65;4.55;;;9.10;98.00;;;;;;5037999;28;20100;-69
2022/11/25 12:05:56;;;;;;;11.02;5.40;;;9.10;98.00;;;;;;5037990;28;20076;-69
2022/11/25 12:08:46;;;;;;;9.50;5.10;;;9.10;98.00;;;;;;5037852;28;20091;-69
2022/11/25 12:11:17;;;;;;;14.15;6.82;;;8.90;98.00;;;;;;5037694;28;20017;-69
2022/11/25 12:13:52;;;;;;;12.43;6.45;;;8.70;98.00;;;;;;5035584;28;20327;-69
2022/11/25 12:16:37;;;;;;;15.90;7.03;;;8.60;98.00;;;;;;5041197;28;20033;-69
2022/11/25 12:19:32;;;;;;;11.98;6.50;;;8.50;98.00;;;;;;5018282;28;20029;-69
2022/11/25 12:22:06;;;;;;;11.20;5.35;;;8.30;98.00;;;;;;5034168;28;20069;-70
2022/11/25 12:25:10;;;;;;;11.85;5.07;;;8.10;98.00;;;;;;5037509;28;20387;-69
2022/11/25 12:27:38;;;;;;;11.52;4.72;;;7.90;98.00;;;;;;4976309;28;20035;-69
2022/11/25 12:30:09;;;;;;;14.15;6.40;;;7.90;98.00;;;;;;5005029;28;20060;-69
2022/11/25 12:32:37;;;;;;;15.38;6.65;;;7.80;98.00;;;;;;5037322;28;20033;-69
2022/11/25 12:35:09;;;;;;;16.73;7.55;;;7.80;98.00;;;;;;5036438;28;20091;-69
2022/11/25 12:38:00;;;;;;;21.75;11.23;;;7.80;98.00;;;;;;5035380;28;20026;-69
2022/11/25 12:40:36;;;;;;;19.50;10.40;;;7.80;97.60;;;;;;5036190;28;20021;-69
2022/11/25 12:43:26;;;;;;;17.13;8.90;;;7.80;97.70;;;;;;5038427;28;20028;-69
2022/11/25 12:46:06;;;;;;;18.55;8.38;;;7.80;97.80;;;;;;5035278;28;20033;-69
2022/11/25 12:48:40;;;;;;;18.88;9.82;;;7.90;98.00;;;;;;5036439;28;20029;-69
2022/11/25 12:51:32;;;;;;;24.25;12.50;;;8.10;98.00;;;;;;5038558;28;20029;-69
2022/11/25 12:54:07;;;;;;;21.70;11.82;;;8.10;98.00;;;;;;5038564;28;20418;-69
2022/11/25 12:57:04;;;;;;;15.38;7.57;;;8.10;98.00;;;;;;5044122;28;20033;-69
2022/11/25 12:59:46;;;;;;;18.23;7.00;;;8.10;98.00;;;;;;5001967;28;20076;-69
2022/11/25 13:02:32;;;;;;;13.60;6.68;;;8.10;98.00;;;;;;5036941;28;20022;-69
2022/11/25 13:05:09;;;;;;;18.00;9.98;;;8.10;98.00;;;;;;5005396;28;20117;-68
2022/11/25 13:08:04;;;;;;;17.40;9.25;;;8.10;98.00;;;;;;4999360;28;20116;-69
2022/11/25 13:10:58;;;;;;;17.10;8.77;;;8.10;98.00;;;;;;5016824;28;20064;-70
2022/11/25 13:13:37;;;;;;;14.70;7.53;;;8.10;98.00;;;;;;5017314;28;20030;-71
2022/11/25 13:16:05;;;;;;;19.88;8.93;;;8.10;98.00;;;;;;5023997;28;20076;-70
2022/11/25 13:18:32;;;;;;;11.23;6.63;;;8.10;98.00;;;;;;5037542;28;20049;-70
2022/11/25 13:21:15;;;;;;;15.95;9.35;;;8.10;98.00;;;;;;5036530;28;20316;-70